createdAt,value
2023-05-19T00:00:10.722Z,50.804413
2023-05-19T00:01:10.665Z,50.804371
2023-05-19T00:02:10.687Z,50.804375
2023-05-19T00:03:10.760Z,50.804237
2023-05-19T00:04:10.648Z,50.804333
2023-05-19T00:05:10.659Z,50.804314
2023-05-19T00:06:10.700Z,50.804363
2023-05-19T00:07:10.625Z,50.804367
2023-05-19T00:08:10.671Z,50.804352
2023-05-19T00:09:10.626Z,50.804382
2023-05-19T00:10:10.603Z,50.804306
2023-05-19T00:11:10.613Z,50.804329
2023-05-19T00:12:10.609Z,50.804386
2023-05-19T00:13:10.643Z,50.804321
2023-05-19T00:14:10.589Z,50.804302
2023-05-19T00:15:10.577Z,50.804344
2023-05-19T00:16:10.631Z,50.804295
2023-05-19T00:17:10.592Z,50.804359
2023-05-19T00:18:10.559Z,50.804314
2023-05-19T00:19:10.792Z,50.804321
2023-05-19T00:20:10.542Z,50.804337
2023-05-19T00:21:10.536Z,50.804329
2023-05-19T00:22:10.539Z,50.804352
2023-05-19T00:23:10.520Z,50.804390
2023-05-19T00:24:10.546Z,50.804375
2023-05-19T00:25:10.517Z,50.804363
2023-05-19T00:26:10.492Z,50.804363
2023-05-19T00:27:10.517Z,50.804382
2023-05-19T00:28:10.466Z,50.804340
2023-05-19T00:29:10.886Z,50.804401
2023-05-19T00:30:10.458Z,50.804424
2023-05-19T00:31:10.447Z,50.804413
2023-05-19T00:32:10.532Z,50.804401
2023-05-19T00:33:10.496Z,50.804424
2023-05-19T00:34:10.471Z,50.804398
2023-05-19T00:35:10.452Z,50.804382
2023-05-19T00:36:10.435Z,50.804329
2023-05-19T00:37:10.403Z,50.804386
2023-05-19T00:38:10.469Z,50.804375
2023-05-19T00:39:10.423Z,50.804428
2023-05-19T00:40:10.416Z,50.804474
2023-05-19T00:41:10.404Z,50.804363
2023-05-19T00:42:10.398Z,50.804333
2023-05-19T00:43:10.370Z,50.804356
2023-05-19T00:44:10.361Z,50.804337
2023-05-19T00:45:10.389Z,50.804321
2023-05-19T00:46:10.400Z,50.804428
2023-05-19T00:47:10.384Z,50.804390
2023-05-19T00:48:10.436Z,50.804409
2023-05-19T00:49:10.330Z,50.804409
2023-05-19T00:50:10.344Z,50.804443
2023-05-19T00:51:10.350Z,50.804436
2023-05-19T00:52:10.287Z,50.804337
2023-05-19T00:53:10.327Z,50.804413
2023-05-19T00:54:10.301Z,50.804382
2023-05-19T00:55:10.294Z,50.804409
2023-05-19T00:56:10.309Z,50.804379
2023-05-19T00:57:10.283Z,50.804352
2023-05-19T00:58:10.249Z,50.804379
2023-05-19T00:59:10.242Z,50.804348
2023-05-19T01:00:10.246Z,50.804340
2023-05-19T01:01:10.287Z,50.804337
2023-05-19T01:02:10.223Z,50.804337
2023-05-19T01:03:10.357Z,50.804337
2023-05-19T01:04:10.335Z,50.804367
2023-05-19T01:05:10.204Z,50.804329
2023-05-19T01:06:10.251Z,50.804352
2023-05-19T01:07:10.187Z,50.804333
2023-05-19T01:08:10.193Z,50.804363
2023-05-19T01:09:10.184Z,50.804478
2023-05-19T01:10:10.177Z,50.804382
2023-05-19T01:11:10.168Z,50.804356
2023-05-19T01:12:10.206Z,50.804306
2023-05-19T01:13:10.165Z,50.804310
2023-05-19T01:14:10.187Z,50.804337
2023-05-19T01:15:10.143Z,50.804321
2023-05-19T01:16:10.169Z,50.804317
2023-05-19T01:17:10.171Z,50.804279
2023-05-19T01:18:10.200Z,50.804337
2023-05-19T01:19:10.157Z,50.804405
2023-05-19T01:20:10.096Z,50.804409
2023-05-19T01:21:10.121Z,50.804371
2023-05-19T01:22:10.129Z,50.804356
2023-05-19T01:23:10.125Z,50.804337
2023-05-19T01:24:10.072Z,50.804363
2023-05-19T01:25:10.139Z,50.804379
2023-05-19T01:26:10.098Z,50.804287
2023-05-19T01:27:10.064Z,50.804394
2023-05-19T01:28:10.103Z,50.804405
2023-05-19T01:29:10.046Z,50.804394
2023-05-19T01:30:10.038Z,50.804398
2023-05-19T01:31:10.012Z,50.804379
2023-05-19T01:32:10.186Z,50.804337
2023-05-19T01:33:10.045Z,50.804329
2023-05-19T01:34:10.010Z,50.804379
2023-05-19T01:35:09.991Z,50.804272
2023-05-19T01:36:09.996Z,50.804211
2023-05-19T01:37:09.987Z,50.804302
2023-05-19T01:38:10.039Z,50.804295
2023-05-19T01:39:09.964Z,50.804371
2023-05-19T01:40:09.999Z,50.804447
2023-05-19T01:41:09.970Z,50.804424
2023-05-19T01:42:09.927Z,50.804386
2023-05-19T01:43:09.994Z,50.804344
2023-05-19T01:44:09.950Z,50.804298
2023-05-19T01:45:09.935Z,50.804333
2023-05-19T01:46:09.987Z,50.804306
2023-05-19T01:47:09.924Z,50.804291
2023-05-19T01:48:11.182Z,50.804321
2023-05-19T01:49:09.964Z,50.804245
2023-05-19T01:50:09.889Z,50.804302
2023-05-19T01:51:09.931Z,50.804325
2023-05-19T01:52:09.868Z,50.804436
2023-05-19T01:53:09.876Z,50.804459
2023-05-19T01:54:09.899Z,50.804287
2023-05-19T01:55:10.017Z,50.804340
2023-05-19T01:56:09.853Z,50.804333
2023-05-19T01:57:09.887Z,50.804340
2023-05-19T01:58:09.852Z,50.804314
2023-05-19T01:59:09.921Z,50.804367
2023-05-19T02:00:09.826Z,50.804325
2023-05-19T02:01:09.891Z,50.804329
2023-05-19T02:02:09.814Z,50.804348
2023-05-19T02:03:09.820Z,50.804329
2023-05-19T02:04:09.848Z,50.804306
2023-05-19T02:05:09.829Z,50.804237
2023-05-19T02:06:09.760Z,50.804382
2023-05-19T02:07:09.757Z,50.804466
2023-05-19T02:08:09.780Z,50.804386
2023-05-19T02:09:09.759Z,50.804329
2023-05-19T02:10:09.793Z,50.804241
2023-05-19T02:11:09.762Z,50.804161
2023-05-19T02:12:09.725Z,50.804218
2023-05-19T02:13:09.745Z,50.804199
2023-05-19T02:14:09.764Z,50.804253
2023-05-19T02:15:09.754Z,50.804237
2023-05-19T02:16:09.727Z,50.804245
2023-05-19T02:17:09.688Z,50.804237
2023-05-19T02:18:09.695Z,50.804249
2023-05-19T02:19:09.760Z,50.804207
2023-05-19T02:20:09.763Z,50.804222
2023-05-19T02:21:09.675Z,50.804234
2023-05-19T02:22:09.642Z,50.804287
2023-05-19T02:23:09.641Z,50.804295
2023-05-19T02:24:09.646Z,50.804352
2023-05-19T02:25:09.656Z,50.804310
2023-05-19T02:26:09.672Z,50.804317
2023-05-19T02:27:09.627Z,50.804356
2023-05-19T02:28:09.611Z,50.804398
2023-05-19T02:29:09.607Z,50.804356
2023-05-19T02:30:09.606Z,50.804379
2023-05-19T02:31:09.614Z,50.804352
2023-05-19T02:32:09.601Z,50.804329
2023-05-19T02:33:09.610Z,50.804371
2023-05-19T02:34:09.566Z,50.804386
2023-05-19T02:35:09.568Z,50.804337
2023-05-19T02:36:10.154Z,50.804398
2023-05-19T02:37:09.559Z,50.804287
2023-05-19T02:38:09.561Z,50.804237
2023-05-19T02:39:09.549Z,50.804268
2023-05-19T02:40:09.516Z,50.804302
2023-05-19T02:41:09.526Z,50.804302
2023-05-19T02:42:09.583Z,50.804340
2023-05-19T02:43:09.493Z,50.804337
2023-05-19T02:44:09.643Z,50.804352
2023-05-19T02:45:09.498Z,50.804337
2023-05-19T02:46:09.529Z,50.804310
2023-05-19T02:47:09.531Z,50.804295
2023-05-19T02:48:09.554Z,50.804237
2023-05-19T02:49:09.467Z,50.804295
2023-05-19T02:50:09.478Z,50.804337
2023-05-19T02:51:09.445Z,50.804276
2023-05-19T02:52:09.466Z,50.804287
2023-05-19T02:53:09.475Z,50.804306
2023-05-19T02:54:09.435Z,50.804287
2023-05-19T02:55:09.466Z,50.804272
2023-05-19T02:56:09.425Z,50.804256
2023-05-19T02:57:09.393Z,50.804272
2023-05-19T02:58:09.474Z,50.804264
2023-05-19T02:59:09.384Z,50.804256
2023-05-19T03:00:09.400Z,50.804321
2023-05-19T03:01:09.407Z,50.804325
2023-05-19T03:02:09.477Z,50.804306
2023-05-19T03:03:09.490Z,50.804295
2023-05-19T03:04:09.550Z,50.804310
2023-05-19T03:05:09.347Z,50.804306
2023-05-19T03:06:09.381Z,50.804310
2023-05-19T03:07:09.338Z,50.804329
2023-05-19T03:08:09.397Z,50.804321
2023-05-19T03:09:09.327Z,50.804352
2023-05-19T03:10:09.301Z,50.804333
2023-05-19T03:11:09.313Z,50.804314
2023-05-19T03:12:09.311Z,50.804333
2023-05-19T03:13:09.286Z,50.804340
2023-05-19T03:14:09.350Z,50.804310
2023-05-19T03:15:09.285Z,50.804321
2023-05-19T03:16:09.304Z,50.804287
2023-05-19T03:17:09.319Z,50.804287
2023-05-19T03:18:09.264Z,50.804272
2023-05-19T03:19:09.337Z,50.804253
2023-05-19T03:20:09.228Z,50.804298
2023-05-19T03:21:09.209Z,50.804337
2023-05-19T03:22:09.232Z,50.804283
2023-05-19T03:23:09.252Z,50.804329
2023-05-19T03:24:09.228Z,50.804329
2023-05-19T03:25:09.215Z,50.804340
2023-05-19T03:26:09.208Z,50.804306
2023-05-19T03:27:09.200Z,50.804276
2023-05-19T03:28:09.186Z,50.804333
2023-05-19T03:29:09.240Z,50.804317
2023-05-19T03:30:09.185Z,50.804363
2023-05-19T03:31:09.172Z,50.804329
2023-05-19T03:32:09.177Z,50.804401
2023-05-19T03:33:09.203Z,50.804344
2023-05-19T03:34:09.153Z,50.804329
2023-05-19T03:35:09.202Z,50.804329
2023-05-19T03:36:09.132Z,50.804317
2023-05-19T03:37:09.140Z,50.804363
2023-05-19T03:38:09.110Z,50.804379
2023-05-19T03:39:09.114Z,50.804333
2023-05-19T03:40:09.159Z,50.804321
2023-05-19T03:41:09.103Z,50.804340
2023-05-19T03:42:09.123Z,50.804344
2023-05-19T03:43:09.097Z,50.804287
2023-05-19T03:44:09.086Z,50.804295
2023-05-19T03:45:09.132Z,50.804302
2023-05-19T03:46:09.110Z,50.804321
2023-05-19T03:47:09.054Z,50.804329
2023-05-19T03:48:09.098Z,50.804363
2023-05-19T03:49:09.070Z,50.804363
2023-05-19T03:50:09.011Z,50.804379
2023-05-19T03:51:09.090Z,50.804371
2023-05-19T03:52:08.995Z,50.804340
2023-05-19T03:53:09.010Z,50.804405
2023-05-19T03:54:09.036Z,50.804386
2023-05-19T03:55:09.000Z,50.804379
2023-05-19T03:56:09.029Z,50.804337
2023-05-19T03:57:08.969Z,50.804432
2023-05-19T03:58:08.979Z,50.804401
2023-05-19T03:59:08.974Z,50.804367
2023-05-19T04:00:08.936Z,50.804337
2023-05-19T04:01:09.007Z,50.804340
2023-05-19T04:02:08.969Z,50.804337
2023-05-19T04:03:09.064Z,50.804317
2023-05-19T04:04:08.977Z,50.804394
2023-05-19T04:05:08.943Z,50.804413
2023-05-19T04:06:08.929Z,50.804356
2023-05-19T04:07:08.948Z,50.804298
2023-05-19T04:08:08.916Z,50.804321
2023-05-19T04:09:08.931Z,50.804317
2023-05-19T04:10:08.895Z,50.804302
2023-05-19T04:11:08.890Z,50.804310
2023-05-19T04:12:08.932Z,50.804295
2023-05-19T04:13:08.873Z,50.804310
2023-05-19T04:14:08.865Z,50.804295
2023-05-19T04:15:09.048Z,50.804291
2023-05-19T04:16:08.875Z,50.804359
2023-05-19T04:17:08.869Z,50.804337
2023-05-19T04:18:08.846Z,50.804333
2023-05-19T04:19:08.882Z,50.804329
2023-05-19T04:20:08.807Z,50.804276
2023-05-19T04:21:08.846Z,50.804321
2023-05-19T04:22:08.815Z,50.804340
2023-05-19T04:23:08.854Z,50.804298
2023-05-19T04:24:08.779Z,50.804314
2023-05-19T04:25:08.761Z,50.804298
2023-05-19T04:26:08.749Z,50.804302
2023-05-19T04:27:08.789Z,50.804340
2023-05-19T04:28:08.771Z,50.804249
2023-05-19T04:29:08.789Z,50.804276
2023-05-19T04:30:08.753Z,50.804321
2023-05-19T04:31:08.789Z,50.804310
2023-05-19T04:32:08.737Z,50.804321
2023-05-19T04:33:08.767Z,50.804344
2023-05-19T04:34:08.732Z,50.804306
2023-05-19T04:35:08.775Z,50.804333
2023-05-19T04:36:08.722Z,50.804333
2023-05-19T04:37:08.693Z,50.804329
2023-05-19T04:38:08.682Z,50.804283
2023-05-19T04:39:08.665Z,50.804317
2023-05-19T04:40:08.674Z,50.804295
2023-05-19T04:41:08.947Z,50.804321
2023-05-19T04:42:08.629Z,50.804291
2023-05-19T04:43:08.652Z,50.804306
2023-05-19T04:44:08.657Z,50.804317
2023-05-19T04:45:08.629Z,50.804306
2023-05-19T04:46:09.557Z,50.804333
2023-05-19T04:47:08.844Z,50.804337
2023-05-19T04:48:08.630Z,50.804321
2023-05-19T04:49:08.625Z,50.804317
2023-05-19T04:50:08.585Z,50.804295
2023-05-19T04:51:08.577Z,50.804340
2023-05-19T04:52:08.596Z,50.804337
2023-05-19T04:53:08.626Z,50.804352
2023-05-19T04:54:08.571Z,50.804394
2023-05-19T04:55:08.573Z,50.804344
2023-05-19T04:56:08.552Z,50.804333
2023-05-19T04:57:08.542Z,50.804279
2023-05-19T04:58:08.580Z,50.804340
2023-05-19T04:59:08.571Z,50.804321
2023-05-19T05:00:08.553Z,50.804379
2023-05-19T05:01:08.531Z,50.804375
2023-05-19T05:02:08.569Z,50.804359
2023-05-19T05:03:08.588Z,50.804413
2023-05-19T05:04:08.586Z,50.804375
2023-05-19T05:05:08.605Z,50.804367
2023-05-19T05:06:08.506Z,50.804398
2023-05-19T05:07:08.447Z,50.804386
2023-05-19T05:08:08.470Z,50.804367
2023-05-19T05:09:08.508Z,50.804348
2023-05-19T05:10:08.448Z,50.804371
2023-05-19T05:11:08.491Z,50.804287
2023-05-19T05:12:08.441Z,50.804314
2023-05-19T05:13:09.581Z,50.804340
2023-05-19T05:14:08.425Z,50.804291
2023-05-19T05:15:08.417Z,50.804333
2023-05-19T05:16:08.476Z,50.804264
2023-05-19T05:17:08.444Z,50.804356
2023-05-19T05:18:08.403Z,50.804398
2023-05-19T05:19:08.411Z,50.804417
2023-05-19T05:20:08.431Z,50.804340
2023-05-19T05:21:08.385Z,50.804295
2023-05-19T05:22:08.387Z,50.804340
2023-05-19T05:23:08.415Z,50.804344
2023-05-19T05:24:08.344Z,50.804291
2023-05-19T05:25:08.354Z,50.804455
2023-05-19T05:26:08.351Z,50.804394
2023-05-19T05:27:08.410Z,50.804390
2023-05-19T05:28:08.329Z,50.804394
2023-05-19T05:29:08.376Z,50.804413
2023-05-19T05:30:08.302Z,50.804344
2023-05-19T05:31:08.356Z,50.804379
2023-05-19T05:32:08.344Z,50.804466
2023-05-19T05:33:08.358Z,50.804451
2023-05-19T05:34:08.269Z,50.804451
2023-05-19T05:35:08.304Z,50.804367
2023-05-19T05:36:08.261Z,50.804348
2023-05-19T05:37:08.273Z,50.804405
2023-05-19T05:38:08.237Z,50.804409
2023-05-19T05:39:08.266Z,50.804379
2023-05-19T05:40:08.251Z,50.804398
2023-05-19T05:41:08.475Z,50.804325
2023-05-19T05:42:08.223Z,50.804325
2023-05-19T05:43:08.229Z,50.804356
2023-05-19T05:44:08.195Z,50.804405
2023-05-19T05:45:08.191Z,50.804295
2023-05-19T05:46:08.266Z,50.804367
2023-05-19T05:47:08.217Z,50.804379
2023-05-19T05:48:08.213Z,50.804333
2023-05-19T05:49:08.158Z,50.804340
2023-05-19T05:50:08.138Z,50.804317
2023-05-19T05:51:08.152Z,50.804390
2023-05-19T05:52:08.110Z,50.804367
2023-05-19T05:53:08.179Z,50.804386
2023-05-19T05:54:08.108Z,50.804352
2023-05-19T05:55:08.107Z,50.804321
2023-05-19T05:56:08.113Z,50.804367
2023-05-19T05:57:08.113Z,50.804359
2023-05-19T05:58:08.078Z,50.804329
2023-05-19T05:59:08.100Z,50.804314
2023-05-19T06:00:08.135Z,50.804314
2023-05-19T06:01:08.081Z,50.804302
2023-05-19T06:02:08.092Z,50.804359
2023-05-19T06:03:08.257Z,50.804386
2023-05-19T06:04:08.053Z,50.804333
2023-05-19T06:05:08.112Z,50.804359
2023-05-19T06:06:08.031Z,50.804363
2023-05-19T06:07:08.041Z,50.804329
2023-05-19T06:08:08.003Z,50.804333
2023-05-19T06:09:08.012Z,50.804371
2023-05-19T06:10:07.985Z,50.804386
2023-05-19T06:11:08.049Z,50.804417
2023-05-19T06:12:08.036Z,50.804401
2023-05-19T06:13:07.995Z,50.804363
2023-05-19T06:14:07.973Z,50.804470
2023-05-19T06:15:08.036Z,50.804447
2023-05-19T06:16:08.119Z,50.804340
2023-05-19T06:17:08.059Z,50.804279
2023-05-19T06:18:07.992Z,50.804329
2023-05-19T06:19:08.054Z,50.804298
2023-05-19T06:20:08.014Z,50.804287
2023-05-19T06:21:07.935Z,50.804363
2023-05-19T06:22:07.909Z,50.804291
2023-05-19T06:23:08.001Z,50.804382
2023-05-19T06:24:07.892Z,50.804283
2023-05-19T06:25:07.903Z,50.804317
2023-05-19T06:26:07.914Z,50.804359
2023-05-19T06:27:07.918Z,50.804283
2023-05-19T06:28:07.891Z,50.804287
2023-05-19T06:29:07.912Z,50.804256
2023-05-19T06:30:07.930Z,50.804295
2023-05-19T06:31:07.908Z,50.804298
2023-05-19T06:32:07.892Z,50.804317
2023-05-19T06:33:07.878Z,50.804314
2023-05-19T06:34:07.854Z,50.804333
2023-05-19T06:35:07.897Z,50.804321
2023-05-19T06:36:07.832Z,50.804291
2023-05-19T06:37:07.829Z,50.804276
2023-05-19T06:38:07.786Z,50.804314
2023-05-19T06:39:07.832Z,50.804314
2023-05-19T06:40:07.835Z,50.804306
2023-05-19T06:41:07.857Z,50.804325
2023-05-19T06:42:07.794Z,50.804329
2023-05-19T06:43:07.768Z,50.804348
2023-05-19T06:44:07.771Z,50.804333
2023-05-19T06:45:07.755Z,50.804302
2023-05-19T06:46:07.791Z,50.804279
2023-05-19T06:47:07.944Z,50.804344
2023-05-19T06:48:07.787Z,50.804306
2023-05-19T06:49:07.776Z,50.804306
2023-05-19T06:50:07.734Z,50.804333
2023-05-19T06:51:07.748Z,50.804302
2023-05-19T06:52:07.712Z,50.804340
2023-05-19T06:53:07.774Z,50.804306
2023-05-19T06:54:07.704Z,50.804356
2023-05-19T06:55:07.688Z,50.804321
2023-05-19T06:56:07.714Z,50.804333
2023-05-19T06:57:07.747Z,50.804325
2023-05-19T06:58:07.951Z,50.804359
2023-05-19T06:59:07.718Z,50.804371
2023-05-19T07:00:07.649Z,50.804302
2023-05-19T07:01:07.851Z,50.804276
2023-05-19T07:02:07.700Z,50.804279
2023-05-19T07:03:07.652Z,50.804348
2023-05-19T07:04:07.742Z,50.804272
2023-05-19T07:05:07.648Z,50.804287
2023-05-19T07:06:08.464Z,50.804287
2023-05-19T07:07:07.616Z,50.804298
2023-05-19T07:08:07.580Z,50.804306
2023-05-19T07:09:07.582Z,50.804276
2023-05-19T07:10:07.545Z,50.804302
2023-05-19T07:11:07.612Z,50.804314
2023-05-19T07:12:07.542Z,50.804310
2023-05-19T07:13:07.526Z,50.804253
2023-05-19T07:14:07.515Z,50.804337
2023-05-19T07:15:07.537Z,50.804310
2023-05-19T07:16:07.679Z,50.804298
2023-05-19T07:17:07.549Z,50.804306
2023-05-19T07:18:07.563Z,50.804382
2023-05-19T07:19:07.525Z,50.804436
2023-05-19T07:20:07.504Z,50.804428
2023-05-19T07:21:07.458Z,50.804424
2023-05-19T07:22:07.484Z,50.804340
2023-05-19T07:23:07.510Z,50.804306
2023-05-19T07:24:07.475Z,50.804314
2023-05-19T07:25:07.486Z,50.804325
2023-05-19T07:26:07.472Z,50.804317
2023-05-19T07:27:07.437Z,50.804314
2023-05-19T07:28:07.425Z,50.804306
2023-05-19T07:29:07.452Z,50.804337
2023-05-19T07:30:07.426Z,50.804321
2023-05-19T07:31:07.417Z,50.804295
2023-05-19T07:32:07.434Z,50.804352
2023-05-19T07:33:07.430Z,50.804348
2023-05-19T07:34:07.394Z,50.804302
2023-05-19T07:35:07.435Z,50.804321
2023-05-19T07:36:07.375Z,50.804344
2023-05-19T07:37:07.358Z,50.804401
2023-05-19T07:38:07.372Z,50.804443
2023-05-19T07:39:07.479Z,50.804256
2023-05-19T07:40:07.332Z,50.804279
2023-05-19T07:41:07.410Z,50.804314
2023-05-19T07:42:07.357Z,50.804298
2023-05-19T07:43:07.323Z,50.804306
2023-05-19T07:44:07.340Z,50.804333
2023-05-19T07:45:07.266Z,50.804363
2023-05-19T07:46:07.339Z,50.804329
2023-05-19T07:47:07.541Z,50.804295
2023-05-19T07:48:07.331Z,50.804276
2023-05-19T07:49:07.297Z,50.804260
2023-05-19T07:50:07.307Z,50.804279
2023-05-19T07:51:07.293Z,50.804283
2023-05-19T07:52:07.279Z,50.804314
2023-05-19T07:53:07.322Z,50.804329
2023-05-19T07:54:07.249Z,50.804333
2023-05-19T07:55:07.260Z,50.804329
2023-05-19T07:56:07.249Z,50.804329
2023-05-19T07:57:07.229Z,50.804329
2023-05-19T07:58:07.235Z,50.804295
2023-05-19T07:59:07.280Z,50.804333
2023-05-19T08:00:07.215Z,50.804317
2023-05-19T08:01:07.212Z,50.804344
2023-05-19T08:02:07.278Z,50.804264
2023-05-19T08:03:07.319Z,50.804325
2023-05-19T08:04:08.521Z,50.804321
2023-05-19T08:05:07.273Z,50.804340
2023-05-19T08:06:07.170Z,50.804279
2023-05-19T08:07:07.162Z,50.804348
2023-05-19T08:08:07.176Z,50.804310
2023-05-19T08:09:07.149Z,50.804329
2023-05-19T08:10:07.139Z,50.804268
2023-05-19T08:11:07.172Z,50.804268
2023-05-19T08:12:07.126Z,50.804237
2023-05-19T08:13:07.149Z,50.804291
2023-05-19T08:14:07.132Z,50.804302
2023-05-19T08:15:07.112Z,50.804260
2023-05-19T08:16:07.176Z,50.804298
2023-05-19T08:17:07.144Z,50.804214
2023-05-19T08:18:07.142Z,50.804207
2023-05-19T08:19:07.106Z,50.804314
2023-05-19T08:20:07.053Z,50.804329
2023-05-19T08:21:07.079Z,50.804287
2023-05-19T08:22:07.139Z,50.804306
2023-05-19T08:23:07.066Z,50.804348
2023-05-19T08:24:07.061Z,50.804314
2023-05-19T08:25:07.040Z,50.804352
2023-05-19T08:26:07.037Z,50.804398
2023-05-19T08:27:07.086Z,50.804356
2023-05-19T08:28:07.034Z,50.804424
2023-05-19T08:29:07.016Z,50.804337
2023-05-19T08:30:07.000Z,50.804325
2023-05-19T08:31:07.010Z,50.804340
2023-05-19T08:32:06.994Z,50.804337
2023-05-19T08:33:07.038Z,50.804295
2023-05-19T08:34:06.983Z,50.804356
2023-05-19T08:35:06.985Z,50.804344
2023-05-19T08:36:06.977Z,50.804379
2023-05-19T08:37:07.042Z,50.804359
2023-05-19T08:38:06.996Z,50.804379
2023-05-19T08:39:06.917Z,50.804394
2023-05-19T08:40:06.941Z,50.804401
2023-05-19T08:41:06.922Z,50.804390
2023-05-19T08:42:06.898Z,50.804344
2023-05-19T08:43:06.979Z,50.804356
2023-05-19T08:44:06.904Z,50.804333
2023-05-19T08:45:06.896Z,50.804329
2023-05-19T08:46:06.977Z,50.804333
2023-05-19T08:47:06.934Z,50.804348
2023-05-19T08:48:06.921Z,50.804329
2023-05-19T08:49:06.906Z,50.804325
2023-05-19T08:50:06.860Z,50.804344
2023-05-19T08:51:06.833Z,50.804356
2023-05-19T08:52:06.834Z,50.804291
2023-05-19T08:53:09.422Z,50.804333
2023-05-19T08:54:07.870Z,50.804367
2023-05-19T08:55:06.825Z,50.804352
2023-05-19T08:56:06.814Z,50.804260
2023-05-19T08:57:06.770Z,50.804276
2023-05-19T08:58:06.781Z,50.804298
2023-05-19T08:59:06.852Z,50.804325
2023-05-19T09:00:06.779Z,50.804352
2023-05-19T09:01:06.808Z,50.804333
2023-05-19T09:02:06.770Z,50.804310
2023-05-19T09:04:06.844Z,50.804317
2023-05-19T09:05:06.813Z,50.804314
2023-05-19T09:06:06.755Z,50.804306
2023-05-19T09:07:06.732Z,50.804310
2023-05-19T09:08:06.708Z,50.804306
2023-05-19T09:09:06.683Z,50.804287
2023-05-19T09:10:06.743Z,50.804268
2023-05-19T09:11:06.709Z,50.804283
2023-05-19T09:12:06.696Z,50.804314
2023-05-19T09:13:06.679Z,50.804302
2023-05-19T09:14:06.713Z,50.804276
2023-05-19T09:15:06.713Z,50.804245
2023-05-19T09:16:06.708Z,50.804283
2023-05-19T09:17:06.724Z,50.804272
2023-05-19T09:18:06.702Z,50.804295
2023-05-19T09:19:06.658Z,50.804298
2023-05-19T09:20:06.688Z,50.804276
2023-05-19T09:21:06.653Z,50.804306
2023-05-19T09:22:06.736Z,50.804310
2023-05-19T09:23:06.628Z,50.804295
2023-05-19T09:24:06.686Z,50.804298
2023-05-19T09:25:06.567Z,50.804306
2023-05-19T09:26:06.706Z,50.804375
2023-05-19T09:27:06.553Z,50.804344
2023-05-19T09:28:06.576Z,50.804295
2023-05-19T09:29:06.597Z,50.804298
2023-05-19T09:30:06.593Z,50.804317
2023-05-19T09:31:06.702Z,50.804298
2023-05-19T09:32:06.602Z,50.804283
2023-05-19T09:33:06.659Z,50.804287
2023-05-19T09:34:06.634Z,50.804276
2023-05-19T09:35:06.686Z,50.804268
2023-05-19T09:36:06.554Z,50.804260
2023-05-19T09:37:06.691Z,50.804302
2023-05-19T09:38:06.508Z,50.804302
2023-05-19T09:39:06.504Z,50.804291
2023-05-19T09:40:06.487Z,50.804306
2023-05-19T09:41:06.488Z,50.804306
2023-05-19T09:42:06.538Z,50.804283
2023-05-19T09:43:06.451Z,50.804260
2023-05-19T09:44:06.464Z,50.804291
2023-05-19T09:45:06.428Z,50.804317
2023-05-19T09:46:06.651Z,50.804317
2023-05-19T09:47:06.440Z,50.804321
2023-05-19T09:48:06.535Z,50.804314
2023-05-19T09:49:06.402Z,50.804348
2023-05-19T09:50:06.432Z,50.804329
2023-05-19T09:51:06.518Z,50.804337
2023-05-19T09:52:06.509Z,50.804321
2023-05-19T09:53:06.436Z,50.804329
2023-05-19T09:54:06.382Z,50.804359
2023-05-19T09:55:06.382Z,50.804382
2023-05-19T09:56:06.376Z,50.804352
2023-05-19T09:57:08.418Z,50.804348
2023-05-19T09:58:06.393Z,50.804325
2023-05-19T09:59:06.372Z,50.804279
2023-05-19T10:00:06.344Z,50.804279
2023-05-19T10:01:06.412Z,50.804272
2023-05-19T10:02:06.309Z,50.804279
2023-05-19T10:03:06.385Z,50.804302
2023-05-19T10:04:06.430Z,50.804298
2023-05-19T10:05:06.366Z,50.804314
2023-05-19T10:06:06.316Z,50.804295
2023-05-19T10:07:06.338Z,50.804287
2023-05-19T10:08:06.287Z,50.804291
2023-05-19T10:09:06.317Z,50.804359
2023-05-19T10:10:06.272Z,50.804314
2023-05-19T10:11:06.264Z,50.804249
2023-05-19T10:12:06.230Z,50.804264
2023-05-19T10:13:06.279Z,50.804245
2023-05-19T10:14:06.272Z,50.804272
2023-05-19T10:15:06.211Z,50.804329
2023-05-19T10:16:06.263Z,50.804333
2023-05-19T10:17:06.239Z,50.804325
2023-05-19T10:18:06.248Z,50.804317
2023-05-19T10:19:06.250Z,50.804325
2023-05-19T10:20:06.187Z,50.804317
2023-05-19T10:21:06.175Z,50.804321
2023-05-19T10:22:06.168Z,50.804325
2023-05-19T10:23:06.172Z,50.804329
2023-05-19T10:24:06.173Z,50.804356
2023-05-19T10:25:06.233Z,50.804337
2023-05-19T10:26:06.136Z,50.804340
2023-05-19T10:27:06.142Z,50.804340
2023-05-19T10:28:06.109Z,50.804337
2023-05-19T10:29:06.183Z,50.804382
2023-05-19T10:30:06.113Z,50.804329
2023-05-19T10:31:06.114Z,50.804367
2023-05-19T10:32:06.189Z,50.804356
2023-05-19T10:33:06.121Z,50.804382
2023-05-19T10:34:06.091Z,50.804394
2023-05-19T10:35:06.108Z,50.804344
2023-05-19T10:36:06.072Z,50.804394
2023-05-19T10:37:06.070Z,50.804405
2023-05-19T10:38:06.073Z,50.804398
2023-05-19T10:39:06.053Z,50.804440
2023-05-19T10:40:06.107Z,50.804554
2023-05-19T10:41:06.054Z,50.804558
2023-05-19T10:42:06.014Z,50.804508
2023-05-19T10:43:06.043Z,50.804443
2023-05-19T10:44:06.015Z,50.804367
2023-05-19T10:45:06.072Z,50.804348
2023-05-19T10:46:06.036Z,50.804382
2023-05-19T10:47:06.020Z,50.804386
2023-05-19T10:48:06.005Z,50.804386
2023-05-19T10:49:05.986Z,50.804337
2023-05-19T10:50:06.014Z,50.804302
2023-05-19T10:51:06.188Z,50.804283
2023-05-19T10:52:05.964Z,50.804310
2023-05-19T10:53:05.972Z,50.804367
2023-05-19T10:54:05.956Z,50.804367
2023-05-19T10:55:05.923Z,50.804401
2023-05-19T10:56:05.972Z,50.804424
2023-05-19T10:57:05.927Z,50.804310
2023-05-19T10:58:05.922Z,50.804363
2023-05-19T10:59:05.952Z,50.804436
2023-05-19T11:00:05.926Z,50.804398
2023-05-19T11:01:05.945Z,50.804367
2023-05-19T11:02:05.908Z,50.804375
2023-05-19T11:03:05.962Z,50.804356
2023-05-19T11:04:05.895Z,50.804302
2023-05-19T11:05:05.881Z,50.804283
2023-05-19T11:06:05.895Z,50.804356
2023-05-19T11:07:05.857Z,50.804321
2023-05-19T11:08:05.827Z,50.804298
2023-05-19T11:09:05.867Z,50.804321
2023-05-19T11:10:05.885Z,50.804276
2023-05-19T11:11:05.886Z,50.804333
2023-05-19T11:12:05.793Z,50.804321
2023-05-19T11:13:06.477Z,50.804352
2023-05-19T11:14:05.847Z,50.804310
2023-05-19T11:15:05.841Z,50.804268
2023-05-19T11:16:05.822Z,50.804230
2023-05-19T11:17:05.902Z,50.804272
2023-05-19T11:18:05.833Z,50.804325
2023-05-19T11:19:05.814Z,50.804321
2023-05-19T11:20:05.793Z,50.804371
2023-05-19T11:21:05.824Z,50.804291
2023-05-19T11:22:05.754Z,50.804302
2023-05-19T11:23:05.761Z,50.804344
2023-05-19T11:24:05.842Z,50.804298
2023-05-19T11:25:05.734Z,50.804352